Terminal Aerodrome Forecast
Issued by NWS Tampa Bay Area, FL

Home | Current Version | Previous Version | Text Only | Print | Product List | Glossary On
Versions: 1 2 3 4 5 6 7 8 9 10 11 12 13 14 15 16
641
FTUS42 KTBW 251931 AAA
TAFFMY
TAF AMD
KFMY 251931Z 2520/2618 18007KT P6SM VCTS BKN045CB
      TEMPO 2520/2523 VRB15G25KT 2SM +TSRA BKN025CB
     FM260000 18005KT P6SM SCT035 BKN100
     FM260500 00000KT P6SM FEW035 SCT100 SCT250
     FM261500 13007KT P6SM FEW025 SCT035 SCT250=

USA.gov is the U.S. government's official web portal to all federal, state and local government web resources and services.